Time;durP1;ratioP1;P1;durP2;ratioP2;P2;SDS_P1;SDS_P2;PMS_P1;PMS_P2;Temp;Humidity;BMP_temperature;BMP_pressure;BME280_temperature;BME280_humidity;BME280_pressure;Samples;Min_cycle;Max_cycle;Signal;HPM_P1;HPM_P2
2023/03/02 00:01:33;;;;;;;2.40;1.20;;;6.70;29.40;;;;;;5066786;28;20366;-67
2023/03/02 00:04:01;;;;;;;2.60;1.40;;;6.70;29.40;;;;;;5069619;28;20637;-67
2023/03/02 00:06:29;;;;;;;2.92;1.42;;;6.40;30.00;;;;;;5070867;28;20254;-67
2023/03/02 00:08:59;;;;;;;2.50;1.33;;;6.50;29.70;;;;;;5069385;28;20183;-67
2023/03/02 00:11:25;;;;;;;2.80;1.50;;;6.50;29.50;;;;;;5069119;28;20203;-67
2023/03/02 00:13:51;;;;;;;2.50;1.30;;;6.40;29.80;;;;;;5070619;28;20596;-67
2023/03/02 00:16:17;;;;;;;3.13;1.43;;;6.50;29.50;;;;;;5071055;28;20197;-67
2023/03/02 00:18:42;;;;;;;4.50;1.60;;;6.20;30.10;;;;;;5071110;28;20186;-67
2023/03/02 00:21:09;;;;;;;3.03;1.77;;;6.30;30.20;;;;;;5068015;28;20194;-67
2023/03/02 00:23:36;;;;;;;2.47;1.10;;;6.30;29.90;;;;;;5066542;28;20167;-67
2023/03/02 00:26:02;;;;;;;2.47;1.13;;;6.30;30.20;;;;;;5069181;28;20638;-66
2023/03/02 00:28:28;;;;;;;3.00;1.50;;;6.30;29.90;;;;;;5069088;28;20186;-67
2023/03/02 00:30:54;;;;;;;3.00;1.60;;;6.20;30.10;;;;;;5068697;28;20622;-67
2023/03/02 00:33:19;;;;;;;5.27;2.33;;;6.10;30.00;;;;;;5068197;28;20438;-67
2023/03/02 00:35:46;;;;;;;3.80;2.13;;;6.10;30.00;;;;;;5074652;28;20235;-67
2023/03/02 00:38:11;;;;;;;4.35;2.67;;;6.00;30.10;;;;;;5074240;28;20194;-67
2023/03/02 00:40:42;;;;;;;2.70;1.40;;;5.70;30.80;;;;;;5073404;28;20751;-67
2023/03/02 00:43:07;;;;;;;3.67;1.92;;;5.50;31.10;;;;;;5073770;28;20436;-67
2023/03/02 00:45:33;;;;;;;3.63;1.93;;;5.30;31.80;;;;;;5073235;28;20183;-67
2023/03/02 00:47:59;;;;;;;3.47;1.87;;;5.20;32.10;;;;;;5075197;28;20179;-67
2023/03/02 00:50:24;;;;;;;11.10;2.83;;;5.50;31.60;;;;;;5071183;28;20677;-66
2023/03/02 00:52:50;;;;;;;3.93;2.33;;;5.40;32.10;;;;;;5064628;28;20192;-72
2023/03/02 00:55:15;;;;;;;3.53;1.87;;;5.40;31.50;;;;;;5073078;28;20179;-67
2023/03/02 00:57:41;;;;;;;3.40;1.83;;;5.40;32.40;;;;;;5072312;28;20229;-67
2023/03/02 01:00:07;;;;;;;3.47;1.87;;;5.50;31.80;;;;;;5071796;28;20207;-66
2023/03/02 01:02:33;;;;;;;2.85;1.30;;;5.40;32.80;;;;;;5071176;28;20184;-66
2023/03/02 01:04:59;;;;;;;2.90;1.30;;;5.60;31.80;;;;;;5074278;28;20178;-67
2023/03/02 01:07:27;;;;;;;2.80;1.10;;;5.70;31.70;;;;;;5069264;28;20171;-67
2023/03/02 01:09:52;;;;;;;2.90;1.50;;;5.70;31.90;;;;;;5071239;28;20377;-67
2023/03/02 01:12:18;;;;;;;3.10;1.40;;;5.80;31.10;;;;;;5071028;28;20701;-67
2023/03/02 01:14:46;;;;;;;3.07;1.43;;;5.70;32.30;;;;;;5073986;28;20179;-67
2023/03/02 01:17:13;;;;;;;3.15;1.40;;;5.80;32.00;;;;;;5072899;28;20286;-67
2023/03/02 01:19:39;;;;;;;6.68;2.25;;;5.70;32.20;;;;;;5074017;28;20200;-67
2023/03/02 01:22:06;;;;;;;2.92;1.20;;;5.80;32.20;;;;;;5070312;28;20287;-66
2023/03/02 01:24:32;;;;;;;3.00;1.33;;;5.70;32.00;;;;;;5073588;28;20171;-66
2023/03/02 01:26:58;;;;;;;6.72;3.80;;;5.60;32.80;;;;;;5074015;28;20259;-67
2023/03/02 01:29:24;;;;;;;3.42;1.63;;;5.60;32.80;;;;;;5073716;28;20744;-67
2023/03/02 01:31:50;;;;;;;3.83;1.73;;;5.90;31.90;;;;;;5069302;28;20203;-67
2023/03/02 01:34:16;;;;;;;3.93;1.70;;;6.20;31.20;;;;;;5073286;28;20228;-67
2023/03/02 01:36:45;;;;;;;3.53;1.73;;;6.50;30.30;;;;;;5073857;28;20261;-66
2023/03/02 01:39:15;;;;;;;3.65;1.52;;;6.40;31.10;;;;;;5073232;28;20199;-67
2023/03/02 01:41:45;;;;;;;3.30;1.55;;;6.40;30.70;;;;;;5069076;28;20685;-67
2023/03/02 01:44:36;;;;;;;3.75;1.73;;;6.60;30.40;;;;;;5071257;28;20609;-67
2023/03/02 01:47:05;;;;;;;5.15;2.25;;;6.60;30.40;;;;;;5072403;28;20266;-67
2023/03/02 01:49:35;;;;;;;3.17;1.25;;;6.50;30.90;;;;;;5069132;28;20179;-67
2023/03/02 01:52:01;;;;;;;3.15;1.35;;;6.70;30.50;;;;;;5071855;28;20212;-67
2023/03/02 01:54:27;;;;;;;3.87;1.83;;;6.80;30.50;;;;;;5068197;28;20714;-67
2023/03/02 01:56:58;;;;;;;3.00;1.20;;;6.60;30.40;;;;;;5074058;28;20377;-67
2023/03/02 01:59:27;;;;;;;3.40;1.58;;;6.60;30.40;;;;;;5073385;28;20248;-67
2023/03/02 02:01:56;;;;;;;3.20;1.45;;;6.70;30.50;;;;;;5073082;28;20195;-67
2023/03/02 02:04:24;;;;;;;3.38;1.75;;;6.80;30.10;;;;;;5065396;28;20175;-67
2023/03/02 02:07:01;;;;;;;3.50;1.80;;;6.90;30.30;;;;;;5068974;28;20191;-67
2023/03/02 02:09:35;;;;;;;4.00;2.20;;;6.90;30.60;;;;;;5072807;28;20175;-66
2023/03/02 02:12:01;;;;;;;3.00;1.20;;;6.70;30.50;;;;;;5073381;28;20195;-67
2023/03/02 02:14:27;;;;;;;3.10;1.52;;;6.60;30.40;;;;;;5073177;28;20188;-67
2023/03/02 02:16:52;;;;;;;2.90;1.30;;;6.70;30.50;;;;;;5070024;28;20187;-67
2023/03/02 02:19:37;;;;;;;5.10;1.83;;;6.80;30.50;;;;;;5074373;28;21111;-67
2023/03/02 02:22:03;;;;;;;2.90;1.38;;;6.90;30.70;;;;;;5074621;28;20194;-67
2023/03/02 02:24:38;;;;;;;4.37;2.27;;;6.90;30.00;;;;;;5074047;28;20260;-67
2023/03/02 02:27:03;;;;;;;2.90;1.35;;;7.00;30.70;;;;;;5068859;28;20206;-67
2023/03/02 02:29:36;;;;;;;4.20;1.73;;;6.90;30.00;;;;;;5074600;28;20719;-67
2023/03/02 02:32:11;;;;;;;3.00;1.50;;;6.80;30.60;;;;;;5075158;28;20182;-67
2023/03/02 02:34:44;;;;;;;4.10;2.40;;;6.90;30.00;;;;;;5074303;28;20178;-67
2023/03/02 02:37:20;;;;;;;3.70;1.80;;;6.80;30.60;;;;;;5074259;28;20190;-66
2023/03/02 02:39:48;;;;;;;3.55;2.05;;;7.00;30.00;;;;;;5074494;28;20219;-67
2023/03/02 02:42:23;;;;;;;3.60;1.83;;;6.70;30.50;;;;;;5076561;28;20559;-67
2023/03/02 02:44:50;;;;;;;2.83;1.20;;;6.70;30.50;;;;;;5076223;28;20171;-67
2023/03/02 02:47:21;;;;;;;2.78;1.17;;;6.60;31.20;;;;;;5072559;28;20190;-66
2023/03/02 02:49:50;;;;;;;3.42;1.30;;;6.60;30.50;;;;;;5069574;28;20293;-67
2023/03/02 02:52:19;;;;;;;2.70;1.10;;;6.60;30.40;;;;;;5074041;28;20556;-67
2023/03/02 02:54:48;;;;;;;2.80;1.20;;;6.60;30.40;;;;;;5073366;28;20183;-67
2023/03/02 02:57:16;;;;;;;4.18;1.45;;;6.80;30.60;;;;;;5071401;28;20186;-66
2023/03/02 02:59:46;;;;;;;3.15;1.40;;;6.90;30.00;;;;;;5069333;28;20214;-67
2023/03/02 03:02:19;;;;;;;2.97;1.30;;;7.00;30.50;;;;;;5073761;28;20179;-67
2023/03/02 03:04:45;;;;;;;2.80;1.20;;;6.60;31.20;;;;;;5073461;28;20645;-67
2023/03/02 03:07:23;;;;;;;3.00;1.40;;;6.60;30.80;;;;;;5072652;28;20241;-67
2023/03/02 03:10:09;;;;;;;5.40;2.97;;;6.70;30.50;;;;;;5070044;28;20468;-67
2023/03/02 03:12:37;;;;;;;4.15;2.15;;;6.60;30.80;;;;;;5073265;28;20764;-67
2023/03/02 03:15:04;;;;;;;3.75;1.73;;;6.90;31.30;;;;;;5072656;28;20284;-67
2023/03/02 03:17:29;;;;;;;3.30;1.73;;;6.40;31.00;;;;;;5072391;28;20530;-67
2023/03/02 03:20:04;;;;;;;4.30;1.70;;;6.30;31.90;;;;;;5068250;28;20213;-67
2023/03/02 03:22:32;;;;;;;3.10;1.50;;;6.60;31.40;;;;;;5071441;28;20295;-66
2023/03/02 03:24:58;;;;;;;3.13;1.45;;;6.50;30.90;;;;;;5073423;28;20186;-67
2023/03/02 03:27:23;;;;;;;3.00;1.43;;;6.40;31.60;;;;;;5072525;28;20620;-67
2023/03/02 03:29:49;;;;;;;3.20;1.60;;;6.40;31.10;;;;;;5070966;28;20739;-67
2023/03/02 03:32:15;;;;;;;3.20;1.50;;;6.00;32.00;;;;;;5071838;28;20211;-67
2023/03/02 03:34:41;;;;;;;4.60;1.52;;;5.80;33.50;;;;;;5073308;28;20421;-67
2023/03/02 03:37:09;;;;;;;3.65;1.95;;;6.20;32.20;;;;;;5073472;28;20207;-67
2023/03/02 03:39:35;;;;;;;3.20;1.52;;;6.40;31.40;;;;;;5068158;28;20199;-67
2023/03/02 03:42:00;;;;;;;2.80;1.17;;;6.60;31.00;;;;;;5071084;28;20567;-67
2023/03/02 03:44:26;;;;;;;3.60;1.63;;;6.70;30.50;;;;;;5071207;28;20429;-67
2023/03/02 03:46:52;;;;;;;3.55;1.85;;;6.80;30.60;;;;;;5073900;28;20181;-67
2023/03/02 03:49:18;;;;;;;2.90;1.30;;;6.90;30.70;;;;;;5073124;28;20627;-67
2023/03/02 03:51:43;;;;;;;2.80;1.20;;;6.90;30.70;;;;;;5069622;28;20199;-66
2023/03/02 03:54:10;;;;;;;2.90;1.20;;;6.70;30.40;;;;;;5070547;28;20190;-66
2023/03/02 03:56:39;;;;;;;3.25;1.50;;;6.60;30.60;;;;;;5073046;28;20171;-67
2023/03/02 03:59:08;;;;;;;2.80;1.20;;;6.70;30.80;;;;;;5072726;28;20226;-67
2023/03/02 04:01:55;;;;;;;3.38;1.73;;;6.80;30.60;;;;;;5069991;28;20211;-67
2023/03/02 04:04:25;;;;;;;3.05;1.45;;;6.60;30.50;;;;;;5063323;28;20325;-67
2023/03/02 04:06:51;;;;;;;3.90;1.92;;;6.50;31.20;;;;;;5070982;28;20176;-66
2023/03/02 04:09:17;;;;;;;4.00;2.05;;;6.50;30.90;;;;;;5072120;28;20198;-67
2023/03/02 04:11:45;;;;;;;3.30;1.40;;;6.50;31.00;;;;;;5071250;28;20632;-67
2023/03/02 04:14:11;;;;;;;7.32;2.15;;;6.60;30.90;;;;;;5073193;28;20286;-67
2023/03/02 04:16:38;;;;;;;3.10;1.38;;;6.60;30.60;;;;;;5066929;28;20678;-65
2023/03/02 04:19:08;;;;;;;4.57;2.40;;;6.60;30.70;;;;;;5068336;28;20242;-68
2023/03/02 04:21:36;;;;;;;3.45;1.70;;;6.40;31.00;;;;;;5071304;28;20253;-69
2023/03/02 04:24:01;;;;;;;3.20;1.30;;;6.10;32.10;;;;;;5069737;28;20265;-69
2023/03/02 04:26:27;;;;;;;3.20;1.40;;;6.30;31.70;;;;;;5067898;28;20258;-69
2023/03/02 04:28:53;;;;;;;3.20;1.40;;;6.60;30.90;;;;;;5070728;28;20205;-69
2023/03/02 04:31:18;;;;;;;3.40;1.60;;;6.30;30.90;;;;;;5069251;28;20702;-69
2023/03/02 04:33:44;;;;;;;3.10;1.20;;;6.30;31.70;;;;;;5070087;28;20523;-67
2023/03/02 04:36:10;;;;;;;3.10;1.20;;;6.40;31.50;;;;;;5069110;28;20175;-69
2023/03/02 04:38:35;;;;;;;3.67;1.60;;;6.30;31.90;;;;;;5069691;28;20542;-69
2023/03/02 04:41:01;;;;;;;3.57;1.47;;;6.40;31.80;;;;;;5070586;28;20472;-69
2023/03/02 04:43:27;;;;;;;3.93;1.70;;;6.50;30.90;;;;;;5068074;28;20194;-69
2023/03/02 04:45:53;;;;;;;3.10;1.20;;;6.60;31.10;;;;;;5070634;28;20441;-68
2023/03/02 04:48:20;;;;;;;3.17;1.40;;;6.60;30.90;;;;;;5069827;28;20221;-67
2023/03/02 04:50:46;;;;;;;3.50;1.70;;;6.70;30.50;;;;;;5071105;28;20222;-67
2023/03/02 04:53:11;;;;;;;3.00;1.30;;;6.90;30.70;;;;;;5069759;28;20184;-69
2023/03/02 04:55:38;;;;;;;3.20;1.20;;;6.60;31.10;;;;;;5068405;28;20241;-69
2023/03/02 04:58:04;;;;;;;3.63;1.63;;;6.50;31.10;;;;;;5053941;28;20422;-69
2023/03/02 05:00:32;;;;;;;3.00;1.20;;;6.70;30.50;;;;;;5048762;28;20306;-69
2023/03/02 05:02:59;;;;;;;3.00;1.20;;;6.40;31.90;;;;;;5053057;28;20180;-69
2023/03/02 05:05:25;;;;;;;3.00;1.25;;;6.50;31.40;;;;;;5068510;28;20183;-68
2023/03/02 05:07:52;;;;;;;4.85;2.22;;;6.50;31.00;;;;;;5069591;28;20190;-67
2023/03/02 05:10:18;;;;;;;3.45;1.40;;;6.30;31.90;;;;;;5069197;28;20209;-68
2023/03/02 05:12:53;;;;;;;3.33;1.80;;;6.30;32.00;;;;;;5070179;28;20179;-67
2023/03/02 05:15:32;;;;;;;3.00;1.27;;;6.20;31.90;;;;;;5068647;28;20183;-67
2023/03/02 05:17:58;;;;;;;2.95;1.20;;;6.30;32.10;;;;;;5069145;28;20194;-67
2023/03/02 05:20:26;;;;;;;3.37;1.50;;;6.60;31.90;;;;;;5065595;28;20219;-67
2023/03/02 05:22:54;;;;;;;8.05;3.45;;;6.60;30.80;;;;;;5074171;28;20492;-66
2023/03/02 05:25:21;;;;;;;3.92;2.03;;;6.50;31.40;;;;;;5071072;28;20628;-66
2023/03/02 05:27:46;;;;;;;3.72;2.00;;;6.60;31.30;;;;;;5066330;28;20218;-66
2023/03/02 05:30:12;;;;;;;3.87;1.70;;;6.20;31.80;;;;;;5073598;28;20239;-66
2023/03/02 05:32:38;;;;;;;3.87;1.60;;;6.40;31.80;;;;;;5073702;28;20907;-66
2023/03/02 05:35:04;;;;;;;3.40;1.60;;;6.50;32.00;;;;;;5073854;28;20406;-66
2023/03/02 05:37:30;;;;;;;2.90;1.10;;;6.60;31.50;;;;;;5071084;28;20373;-67
2023/03/02 05:39:57;;;;;;;3.30;1.48;;;6.30;31.60;;;;;;5069144;28;20215;-66
2023/03/02 05:42:22;;;;;;;3.00;1.23;;;6.50;31.60;;;;;;5072445;28;20634;-66
2023/03/02 05:44:48;;;;;;;3.20;1.50;;;6.60;31.70;;;;;;5072147;28;20266;-65
2023/03/02 05:47:14;;;;;;;3.00;1.10;;;6.70;31.10;;;;;;5071921;28;20195;-69
2023/03/02 05:49:39;;;;;;;3.10;1.37;;;6.80;30.60;;;;;;5070729;28;20210;-65
2023/03/02 05:52:05;;;;;;;3.13;1.20;;;6.60;31.40;;;;;;5073502;28;20179;-65
2023/03/02 05:54:31;;;;;;;4.80;1.93;;;6.70;31.10;;;;;;5072320;28;20175;-68
2023/03/02 05:56:57;;;;;;;3.20;1.47;;;6.90;30.70;;;;;;5071881;28;20184;-66
2023/03/02 05:59:22;;;;;;;3.10;1.30;;;6.90;30.70;;;;;;5070310;28;20198;-68
2023/03/02 06:01:48;;;;;;;3.03;1.27;;;6.90;30.70;;;;;;5070953;28;20580;-69
2023/03/02 06:04:14;;;;;;;5.10;1.70;;;6.90;30.70;;;;;;5073009;28;20258;-69
2023/03/02 06:06:40;;;;;;;4.50;2.05;;;7.20;30.90;;;;;;5072139;28;20282;-65
2023/03/02 06:09:06;;;;;;;3.17;1.30;;;6.70;30.50;;;;;;5070998;28;20266;-66
2023/03/02 06:11:32;;;;;;;3.87;2.20;;;6.50;31.20;;;;;;5070580;28;20571;-65
2023/03/02 06:13:58;;;;;;;3.00;1.13;;;6.60;31.50;;;;;;5072875;28;20413;-65
2023/03/02 06:16:23;;;;;;;6.80;3.00;;;6.50;31.80;;;;;;5073137;28;20181;-66
2023/03/02 06:18:49;;;;;;;4.87;2.90;;;6.70;31.80;;;;;;5070136;28;20584;-68
2023/03/02 06:21:14;;;;;;;4.77;1.50;;;6.70;31.90;;;;;;5069630;28;20207;-71
2023/03/02 06:23:40;;;;;;;3.30;1.53;;;6.70;31.30;;;;;;5072428;28;20655;-65
2023/03/02 06:26:10;;;;;;;4.90;2.30;;;6.80;31.20;;;;;;5073806;28;20186;-66
2023/03/02 06:28:37;;;;;;;4.75;2.53;;;6.80;31.10;;;;;;5072786;28;20262;-66
2023/03/02 06:31:03;;;;;;;2.90;1.10;;;6.90;30.70;;;;;;5069526;28;20208;-65
2023/03/02 06:33:29;;;;;;;3.08;1.33;;;6.70;30.90;;;;;;5069487;28;20595;-65
2023/03/02 06:35:55;;;;;;;3.25;1.65;;;6.50;32.30;;;;;;5058315;28;20187;-65
2023/03/02 06:38:21;;;;;;;3.30;1.40;;;6.70;31.90;;;;;;5051215;28;20191;-65
2023/03/02 06:40:47;;;;;;;3.00;1.40;;;6.40;32.30;;;;;;5060331;28;20219;-65
2023/03/02 06:43:12;;;;;;;3.83;1.37;;;6.80;31.20;;;;;;5071343;28;20180;-69
2023/03/02 06:45:38;;;;;;;4.37;2.33;;;6.60;31.50;;;;;;5070522;28;20176;-66
2023/03/02 06:48:05;;;;;;;3.90;2.00;;;6.60;31.80;;;;;;5073659;28;20401;-66
2023/03/02 06:50:31;;;;;;;3.10;1.63;;;6.60;31.80;;;;;;5072946;28;20433;-65
2023/03/02 06:52:57;;;;;;;4.05;2.13;;;6.50;31.90;;;;;;5073022;28;20221;-65
2023/03/02 06:55:23;;;;;;;3.40;1.50;;;6.70;31.70;;;;;;5070049;28;20206;-72
2023/03/02 06:57:49;;;;;;;4.07;1.47;;;6.60;31.80;;;;;;5070498;28;20480;-66
2023/03/02 07:00:16;;;;;;;3.42;1.85;;;6.70;31.30;;;;;;5071894;28;20284;-66
2023/03/02 07:02:45;;;;;;;2.80;1.20;;;6.80;31.50;;;;;;5072687;28;20167;-68
2023/03/02 07:05:11;;;;;;;5.45;3.38;;;6.80;31.10;;;;;;5071691;28;20221;-65
2023/03/02 07:07:37;;;;;;;2.90;1.50;;;6.90;30.70;;;;;;5061515;28;20270;-66
2023/03/02 07:10:04;;;;;;;2.80;1.30;;;6.90;30.70;;;;;;5072301;28;20696;-66
2023/03/02 07:12:31;;;;;;;7.80;2.08;;;6.90;30.80;;;;;;5071947;28;20175;-66
2023/03/02 07:14:57;;;;;;;3.38;1.95;;;6.80;31.00;;;;;;5071523;28;20186;-66
2023/03/02 07:17:22;;;;;;;3.83;2.03;;;6.80;31.60;;;;;;5069130;28;20556;-66
2023/03/02 07:19:48;;;;;;;3.00;1.53;;;6.90;31.40;;;;;;5070369;28;20211;-65
2023/03/02 07:22:13;;;;;;;3.07;1.50;;;7.00;30.80;;;;;;5071414;28;20642;-65
2023/03/02 07:24:39;;;;;;;2.83;1.50;;;7.00;30.80;;;;;;5072411;28;20214;-66
2023/03/02 07:27:04;;;;;;;2.67;1.33;;;7.30;30.90;;;;;;5072454;28;20168;-66
2023/03/02 07:29:30;;;;;;;2.70;1.50;;;7.00;30.80;;;;;;5067462;28;20201;-65
2023/03/02 07:31:58;;;;;;;2.90;1.50;;;7.10;30.80;;;;;;5070978;28;20237;-68
2023/03/02 07:34:25;;;;;;;2.85;1.58;;;7.00;30.70;;;;;;5071225;28;20179;-66
2023/03/02 07:36:51;;;;;;;2.50;1.10;;;7.10;30.80;;;;;;5069243;28;20552;-71
2023/03/02 07:39:17;;;;;;;3.15;1.95;;;7.10;30.90;;;;;;5068207;28;20199;-67
2023/03/02 07:41:43;;;;;;;2.40;1.10;;;6.80;30.90;;;;;;5071341;28;20211;-68
2023/03/02 07:44:08;;;;;;;3.00;1.27;;;6.40;31.90;;;;;;5070785;28;20178;-66
2023/03/02 07:46:34;;;;;;;3.70;1.80;;;6.90;31.70;;;;;;5070034;28;20207;-65
2023/03/02 07:49:00;;;;;;;2.57;1.30;;;7.20;30.90;;;;;;5068977;28;20528;-66
2023/03/02 07:51:26;;;;;;;2.67;1.40;;;7.20;31.00;;;;;;5069908;28;20199;-66
2023/03/02 07:53:51;;;;;;;2.40;1.10;;;7.30;31.80;;;;;;5069441;28;20814;-65
2023/03/02 07:56:17;;;;;;;2.43;1.20;;;7.40;30.80;;;;;;5071370;28;20179;-69
2023/03/02 07:58:43;;;;;;;2.60;1.40;;;7.30;30.60;;;;;;5072030;28;20176;-67
2023/03/02 08:01:08;;;;;;;2.27;1.10;;;7.00;30.80;;;;;;5069197;28;20877;-73
2023/03/02 08:03:35;;;;;;;3.23;1.97;;;6.90;31.60;;;;;;5071118;28;20171;-74
2023/03/02 08:06:08;;;;;;;2.30;1.20;;;7.10;32.40;;;;;;5069745;28;20211;-75
2023/03/02 08:08:34;;;;;;;2.60;1.40;;;7.50;31.20;;;;;;5070880;28;20187;-74
2023/03/02 08:11:07;;;;;;;2.85;1.52;;;7.50;30.50;;;;;;5069982;28;20203;-74
2023/03/02 08:13:33;;;;;;;2.80;1.80;;;7.80;30.40;;;;;;5070521;28;20548;-74
2023/03/02 08:16:00;;;;;;;4.83;2.33;;;7.90;29.90;;;;;;5070691;28;20645;-69
2023/03/02 08:18:27;;;;;;;2.47;1.40;;;7.80;30.00;;;;;;5067429;28;20187;-70
2023/03/02 08:20:53;;;;;;;2.90;1.58;;;8.00;29.60;;;;;;5068138;28;20203;-69
2023/03/02 08:23:19;;;;;;;2.70;1.67;;;7.80;29.90;;;;;;5071399;28;20171;-69
2023/03/02 08:25:45;;;;;;;2.58;1.58;;;7.90;29.90;;;;;;5070186;28;20321;-69
2023/03/02 08:28:10;;;;;;;6.37;2.27;;;8.00;29.40;;;;;;5064003;28;20286;-70
2023/03/02 08:30:36;;;;;;;3.20;1.70;;;8.10;29.60;;;;;;5069880;28;20461;-70
2023/03/02 08:33:02;;;;;;;3.30;2.10;;;8.50;29.10;;;;;;5067760;28;20191;-70
2023/03/02 08:35:28;;;;;;;2.50;1.50;;;8.60;28.70;;;;;;5071006;28;20414;-69
2023/03/02 08:37:53;;;;;;;2.60;1.60;;;8.70;28.80;;;;;;5070189;28;20217;-69
2023/03/02 08:40:19;;;;;;;2.20;1.10;;;8.40;29.40;;;;;;5069277;28;20214;-69
2023/03/02 08:42:44;;;;;;;3.47;2.27;;;8.40;29.90;;;;;;5069692;28;20175;-69
2023/03/02 08:45:10;;;;;;;2.80;1.80;;;8.70;29.10;;;;;;5066899;28;20190;-72
2023/03/02 08:47:36;;;;;;;2.30;1.20;;;8.60;29.90;;;;;;5069540;28;20183;-67
2023/03/02 08:50:03;;;;;;;2.30;1.30;;;8.80;28.90;;;;;;5067477;28;20591;-67
2023/03/02 08:52:31;;;;;;;3.10;1.95;;;8.90;28.70;;;;;;5070501;28;20175;-75
2023/03/02 08:54:57;;;;;;;2.50;1.40;;;9.00;28.40;;;;;;5072046;28;20237;-68
2023/03/02 08:57:22;;;;;;;2.40;1.40;;;9.40;27.60;;;;;;5066370;28;20184;-74
2023/03/02 08:59:48;;;;;;;2.70;1.43;;;10.00;27.20;;;;;;5073733;28;20221;-68
2023/03/02 09:02:13;;;;;;;2.73;1.67;;;9.10;27.90;;;;;;5074144;28;20171;-68
2023/03/02 09:04:39;;;;;;;2.20;1.10;;;9.30;27.70;;;;;;5073023;28;20266;-68
2023/03/02 09:07:05;;;;;;;2.20;1.20;;;9.40;28.20;;;;;;5070089;28;20204;-68
2023/03/02 09:09:30;;;;;;;2.57;1.53;;;9.30;28.30;;;;;;5067605;28;20207;-68
2023/03/02 09:11:56;;;;;;;2.80;1.77;;;8.70;28.70;;;;;;5070424;28;20184;-68
2023/03/02 09:14:21;;;;;;;2.40;1.33;;;8.50;29.40;;;;;;5068574;28;20184;-68
2023/03/02 09:16:47;;;;;;;2.23;1.20;;;8.70;29.10;;;;;;5067440;28;20634;-68
2023/03/02 09:19:13;;;;;;;2.30;1.30;;;8.90;29.00;;;;;;5069199;28;20196;-68
2023/03/02 09:21:39;;;;;;;3.03;2.17;;;8.90;28.90;;;;;;5069880;28;20442;-68
2023/03/02 09:24:05;;;;;;;2.13;1.10;;;8.60;29.10;;;;;;5071925;28;20181;-68
2023/03/02 09:26:31;;;;;;;3.60;1.65;;;8.40;29.70;;;;;;5068128;28;20171;-68
2023/03/02 09:28:56;;;;;;;2.30;1.40;;;8.40;30.10;;;;;;5066935;28;20184;-69
2023/03/02 09:31:22;;;;;;;2.70;1.73;;;8.00;30.50;;;;;;5069599;28;20195;-68
2023/03/02 09:33:48;;;;;;;2.42;1.40;;;8.20;30.30;;;;;;5067841;28;20274;-68
2023/03/02 09:36:20;;;;;;;2.87;1.67;;;8.70;29.40;;;;;;5081269;28;20303;-69
2023/03/02 09:38:46;;;;;;;2.70;1.60;;;9.20;29.60;;;;;;5072672;28;20703;-69
2023/03/02 09:41:18;;;;;;;2.30;1.40;;;9.50;28.10;;;;;;5072910;28;20704;-69
2023/03/02 09:44:05;;;;;;;2.20;1.40;;;9.10;28.30;;;;;;5078201;28;20185;-69
2023/03/02 09:46:40;;;;;;;3.90;2.00;;;9.00;28.90;;;;;;5078694;28;20444;-69
2023/03/02 09:49:11;;;;;;;2.17;1.25;;;9.60;28.20;;;;;;5074163;28;20171;-73
2023/03/02 09:52:41;;;;;;;2.30;1.42;;;9.70;27.60;;;;;;5093057;28;20212;-69
2023/03/02 09:55:23;;;;;;;2.40;1.63;;;9.90;27.70;;;;;;5015153;28;20713;-68
2023/03/02 09:57:49;;;;;;;2.30;1.40;;;9.80;27.70;;;;;;5025448;28;20186;-69
2023/03/02 10:00:23;;;;;;;2.60;1.30;;;9.70;28.30;;;;;;5029460;28;20257;-69
2023/03/02 10:02:55;;;;;;;2.20;1.30;;;9.30;29.10;;;;;;5029217;28;20406;-69
2023/03/02 10:05:26;;;;;;;3.38;2.00;;;8.80;29.40;;;;;;5019653;28;20201;-69
2023/03/02 10:07:52;;;;;;;2.55;1.73;;;9.20;28.90;;;;;;5029937;28;20182;-69
2023/03/02 10:10:22;;;;;;;2.30;1.37;;;8.60;29.60;;;;;;5029991;28;20225;-69
2023/03/02 10:12:58;;;;;;;2.10;1.27;;;8.80;29.70;;;;;;5024230;28;20444;-69
2023/03/02 10:15:56;;;;;;;2.45;1.60;;;8.50;30.30;;;;;;5023260;28;20671;-69
2023/03/02 10:19:02;;;;;;;2.75;1.75;;;8.70;29.70;;;;;;5023363;28;20188;-69
2023/03/02 10:21:41;;;;;;;2.38;1.40;;;9.40;28.80;;;;;;5030252;28;20207;-70
2023/03/02 10:24:30;;;;;;;3.30;1.60;;;9.20;28.60;;;;;;5030062;28;20165;-68
2023/03/02 10:27:00;;;;;;;3.10;1.80;;;9.20;29.70;;;;;;5060416;28;20201;-69
2023/03/02 10:29:34;;;;;;;2.38;1.52;;;9.70;29.20;;;;;;5069316;28;20216;-69
2023/03/02 10:32:21;;;;;;;2.75;2.10;;;9.40;28.50;;;;;;5072117;28;20201;-69
2023/03/02 10:34:48;;;;;;;2.65;1.88;;;8.80;29.10;;;;;;5072134;28;20167;-69
2023/03/02 10:37:21;;;;;;;1.98;1.20;;;9.30;29.30;;;;;;5069435;28;20231;-69
2023/03/02 10:39:48;;;;;;;2.20;1.40;;;9.90;28.60;;;;;;5070150;28;20699;-69
2023/03/02 10:42:19;;;;;;;2.33;1.52;;;10.40;27.10;;;;;;5068020;28;20182;-71
2023/03/02 10:44:49;;;;;;;3.25;2.15;;;10.80;26.90;;;;;;5072383;28;20160;-69
2023/03/02 10:47:22;;;;;;;4.85;2.00;;;11.00;26.80;;;;;;5071441;28;20216;-69
2023/03/02 10:49:48;;;;;;;2.50;1.60;;;10.70;26.20;;;;;;5062348;28;20205;-69
2023/03/02 10:52:16;;;;;;;2.57;1.70;;;10.70;26.70;;;;;;5071739;28;20717;-68
2023/03/02 10:54:42;;;;;;;4.63;2.47;;;10.50;26.60;;;;;;5061984;28;20991;-69
2023/03/02 10:57:29;;;;;;;3.40;1.83;;;10.70;26.50;;;;;;5058721;28;20442;-69
2023/03/02 11:00:24;;;;;;;2.40;1.50;;;11.10;26.20;;;;;;5063955;28;20210;-70
2023/03/02 11:02:51;;;;;;;2.90;1.80;;;11.50;25.90;;;;;;5070710;28;20436;-69
2023/03/02 11:05:16;;;;;;;7.37;2.47;;;11.40;24.80;;;;;;5069056;28;20437;-69
2023/03/02 11:07:53;;;;;;;2.70;1.50;;;11.10;25.40;;;;;;5071809;28;21100;-69
2023/03/02 11:10:22;;;;;;;4.55;2.15;;;11.10;25.70;;;;;;5069927;28;20761;-69
2023/03/02 11:12:50;;;;;;;1.90;1.37;;;11.40;25.80;;;;;;5069615;28;20191;-69
2023/03/02 11:15:21;;;;;;;2.77;1.67;;;11.40;26.40;;;;;;5070436;28;20504;-69
2023/03/02 11:17:58;;;;;;;2.40;1.53;;;11.70;24.70;;;;;;5070831;28;20441;-70
2023/03/02 11:20:28;;;;;;;3.30;1.43;;;11.30;25.50;;;;;;5067299;28;20472;-69
2023/03/02 11:23:02;;;;;;;2.00;1.30;;;10.40;26.40;;;;;;5065424;28;20421;-69
2023/03/02 11:25:34;;;;;;;2.10;1.40;;;10.40;27.10;;;;;;5067960;28;20933;-69
2023/03/02 11:28:24;;;;;;;2.80;1.77;;;10.40;26.70;;;;;;5069844;28;20429;-69
2023/03/02 11:30:54;;;;;;;1.90;1.30;;;10.70;26.10;;;;;;5066532;28;20453;-69
2023/03/02 11:33:26;;;;;;;2.42;1.60;;;9.90;28.80;;;;;;5070973;28;20405;-70
2023/03/02 11:35:57;;;;;;;2.10;1.37;;;10.20;27.20;;;;;;5070729;28;20217;-69
2023/03/02 11:38:27;;;;;;;2.10;1.40;;;10.00;28.00;;;;;;5068829;28;20944;-70
2023/03/02 11:41:28;;;;;;;2.20;1.57;;;9.90;28.20;;;;;;5067694;28;20601;-69
2023/03/02 11:43:57;;;;;;;2.10;1.60;;;10.10;28.00;;;;;;5062442;28;20434;-69
2023/03/02 11:46:25;;;;;;;2.03;1.43;;;11.20;26.00;;;;;;5064230;28;20516;-69
2023/03/02 11:48:55;;;;;;;3.30;1.57;;;11.20;26.10;;;;;;5070236;28;20826;-70
2023/03/02 11:51:31;;;;;;;2.77;2.03;;;10.90;26.60;;;;;;5070496;28;20988;-69
2023/03/02 11:54:05;;;;;;;2.03;1.30;;;10.60;27.00;;;;;;5070484;28;20409;-69
2023/03/02 11:56:37;;;;;;;2.10;1.43;;;10.70;26.60;;;;;;5067092;28;20433;-69
2023/03/02 11:59:13;;;;;;;1.90;1.20;;;10.80;26.80;;;;;;5070659;28;20421;-70
2023/03/02 12:01:39;;;;;;;2.00;1.30;;;11.50;26.70;;;;;;5069488;28;20468;-69
2023/03/02 12:04:24;;;;;;;2.00;1.30;;;10.90;25.50;;;;;;5070166;28;20424;-69
2023/03/02 12:06:50;;;;;;;2.20;1.50;;;11.00;26.70;;;;;;5060643;28;21164;-69
2023/03/02 12:09:21;;;;;;;2.53;1.83;;;12.30;24.80;;;;;;5062392;28;20437;-69
2023/03/02 12:11:54;;;;;;;2.00;1.30;;;12.40;24.70;;;;;;5069620;28;20472;-70
2023/03/02 12:14:29;;;;;;;3.30;1.57;;;11.90;25.10;;;;;;5069821;28;20405;-70
2023/03/02 12:17:18;;;;;;;5.53;2.03;;;10.80;26.00;;;;;;5066828;28;20933;-70
2023/03/02 12:19:44;;;;;;;2.47;1.73;;;11.50;25.20;;;;;;5070713;28;20449;-69
2023/03/02 12:22:13;;;;;;;2.30;1.70;;;10.70;26.70;;;;;;5070942;28;20914;-70
2023/03/02 12:24:42;;;;;;;2.27;1.50;;;10.00;27.70;;;;;;5070811;28;20830;-68
2023/03/02 12:27:14;;;;;;;2.50;1.70;;;9.50;29.60;;;;;;5067705;28;20425;-69
2023/03/02 12:29:41;;;;;;;1.70;1.10;;;9.80;30.20;;;;;;5069606;28;20464;-69
2023/03/02 12:32:21;;;;;;;3.03;1.70;;;9.50;28.80;;;;;;5070469;28;20785;-69
2023/03/02 12:34:58;;;;;;;2.90;1.70;;;10.20;28.90;;;;;;5067616;28;20496;-69
2023/03/02 12:37:28;;;;;;;2.00;1.50;;;9.70;29.50;;;;;;5070195;28;20815;-69
2023/03/02 12:40:24;;;;;;;2.40;1.50;;;9.80;29.60;;;;;;5074028;28;20222;-69
2023/03/02 12:43:11;;;;;;;2.20;1.53;;;9.70;29.80;;;;;;5054284;28;20168;-69
2023/03/02 12:46:09;;;;;;;2.53;1.77;;;10.10;27.70;;;;;;5054744;28;20378;-69
2023/03/02 12:49:11;;;;;;;3.80;1.63;;;9.30;26.80;;;;;;5051383;28;20480;-70
2023/03/02 12:51:57;;;;;;;2.10;1.43;;;11.00;26.60;;;;;;5014547;28;20542;-70
2023/03/02 12:54:28;;;;;;;1.93;1.33;;;12.10;26.40;;;;;;5073893;28;20409;-69
2023/03/02 12:57:14;;;;;;;2.67;1.30;;;12.20;25.30;;;;;;5073774;28;20512;-70
2023/03/02 12:59:40;;;;;;;3.70;1.57;;;12.00;24.80;;;;;;5070501;28;20468;-69
2023/03/02 13:02:18;;;;;;;2.10;1.37;;;11.00;26.10;;;;;;5065711;28;20418;-69
2023/03/02 13:04:52;;;;;;;3.77;2.90;;;10.20;27.70;;;;;;5074288;28;20918;-69
2023/03/02 13:07:21;;;;;;;2.40;1.83;;;10.20;27.90;;;;;;5074356;28;20405;-69